CEB4770 RPMD-RPVA
Flight info
| Callsign | CEB4770 |
|---|---|
| Flight time | 0h 43m |
| Altitude | 30000 |
| Route | RIMAR1C RIMAR W9 BANWA BANWA2R |
| Aircraft | A320/M-SDE3FGHIRWY/LB1 |
Departure
| Time | 2026-04-21 13:27 |
|---|---|
| Airport | Francisco Bangoy International Airport (RPMD) |
Arrival
| Time | 2026-04-21 14:10 |
|---|---|
| Airport | Daniel Z. Romualdez Airport (RPVA) |
| Time | Latitude | Longitude | Altitude | Speed | Heading |
|---|---|---|---|---|---|
| 2026-04-21 13:03 | 7.12913 | 125.64503 | 101 ft | 0 kts | 320° |
| 2026-04-21 13:18 | 7.12905 | 125.64509 | 101 ft | 4 kts | 317° |
| 2026-04-21 13:18 | 7.12887 | 125.64529 | 101 ft | 4 kts | 303° |
| 2026-04-21 13:18 | 7.12875 | 125.64553 | 100 ft | 4 kts | 286° |
| 2026-04-21 13:19 | 7.12871 | 125.64580 | 99 ft | 4 kts | 266° |
| 2026-04-21 13:19 | 7.12876 | 125.64605 | 101 ft | 4 kts | 239° |
| 2026-04-21 13:19 | 7.12882 | 125.64614 | 100 ft | 0 kts | 230° |
| 2026-04-21 13:21 | 7.12881 | 125.64612 | 100 ft | 2 kts | 230° |
| 2026-04-21 13:21 | 7.12849 | 125.64575 | 99 ft | 8 kts | 229° |
| 2026-04-21 13:22 | 7.12807 | 125.64526 | 101 ft | 10 kts | 229° |
| 2026-04-21 13:22 | 7.12760 | 125.64472 | 101 ft | 12 kts | 229° |
| 2026-04-21 13:22 | 7.12691 | 125.64452 | 101 ft | 11 kts | 155° |
| 2026-04-21 13:22 | 7.12633 | 125.64499 | 101 ft | 10 kts | 140° |
| 2026-04-21 13:23 | 7.12579 | 125.64544 | 101 ft | 10 kts | 146° |
| 2026-04-21 13:23 | 7.12493 | 125.64506 | 100 ft | 17 kts | 228° |
| 2026-04-21 13:23 | 7.12410 | 125.64409 | 100 ft | 23 kts | 229° |
| 2026-04-21 13:23 | 7.12287 | 125.64266 | 101 ft | 29 kts | 229° |
| 2026-04-21 13:24 | 7.12150 | 125.64107 | 102 ft | 31 kts | 229° |
| 2026-04-21 13:24 | 7.12010 | 125.63945 | 102 ft | 32 kts | 229° |
| 2026-04-21 13:24 | 7.11869 | 125.63781 | 102 ft | 31 kts | 229° |
| 2026-04-21 13:24 | 7.11780 | 125.63678 | 100 ft | 19 kts | 228° |
| 2026-04-21 13:25 | 7.11752 | 125.63566 | 100 ft | 12 kts | 259° |
| 2026-04-21 13:25 | 7.11717 | 125.63535 | 100 ft | 10 kts | 181° |
| 2026-04-21 13:25 | 7.11695 | 125.63580 | 100 ft | 8 kts | 62° |
| 2026-04-21 13:25 | 7.11708 | 125.63595 | 100 ft | 0 kts | 49° |
| 2026-04-21 13:26 | 7.11726 | 125.63616 | 100 ft | 21 kts | 49° |
| 2026-04-21 13:26 | 7.12004 | 125.63938 | 102 ft | 98 kts | 49° |
| 2026-04-21 13:26 | 7.12589 | 125.64617 | 102 ft | 156 kts | 49° |
| 2026-04-21 13:27 | 7.13363 | 125.65487 | 689 ft | 165 kts | 45° |
| 2026-04-21 13:27 | 7.14130 | 125.66317 | 1481 ft | 163 kts | 45° |
| 2026-04-21 13:27 | 7.14919 | 125.67166 | 2177 ft | 169 kts | 45° |
| 2026-04-21 13:27 | 7.15775 | 125.68087 | 2559 ft | 191 kts | 45° |
| 2026-04-21 13:28 | 7.16728 | 125.69113 | 2902 ft | 216 kts | 46° |
| 2026-04-21 13:28 | 7.17900 | 125.70210 | 3362 ft | 240 kts | 33° |
| 2026-04-21 13:28 | 7.19492 | 125.70903 | 3923 ft | 259 kts | 11° |
| 2026-04-21 13:28 | 7.21283 | 125.70952 | 4791 ft | 266 kts | 351° |
| 2026-04-21 13:29 | 7.23034 | 125.70294 | 5694 ft | 274 kts | 329° |
| 2026-04-21 13:29 | 7.24600 | 125.69158 | 6565 ft | 280 kts | 325° |
| 2026-04-21 13:29 | 7.26706 | 125.67572 | 7719 ft | 285 kts | 324° |
| 2026-04-21 13:29 | 7.27762 | 125.66774 | 8296 ft | 288 kts | 324° |
| 2026-04-21 13:30 | 7.29379 | 125.65553 | 9166 ft | 292 kts | 323° |
| 2026-04-21 13:30 | 7.31111 | 125.64468 | 9987 ft | 296 kts | 336° |
| 2026-04-21 13:30 | 7.33113 | 125.63872 | 10590 ft | 309 kts | 351° |
| 2026-04-21 13:30 | 7.35325 | 125.63596 | 10870 ft | 331 kts | 353° |
| 2026-04-21 13:31 | 7.37657 | 125.63335 | 11435 ft | 342 kts | 353° |
| 2026-04-21 13:31 | 7.40046 | 125.63073 | 12137 ft | 347 kts | 353° |
| 2026-04-21 13:31 | 7.42463 | 125.62803 | 12835 ft | 352 kts | 353° |
| 2026-04-21 13:31 | 7.44920 | 125.62527 | 13513 ft | 357 kts | 353° |
| 2026-04-21 13:32 | 7.47406 | 125.62247 | 14122 ft | 362 kts | 353° |
| 2026-04-21 13:32 | 7.49922 | 125.61992 | 14738 ft | 365 kts | 354° |
| 2026-04-21 13:32 | 7.52462 | 125.61758 | 15362 ft | 368 kts | 354° |
| 2026-04-21 13:32 | 7.55025 | 125.61531 | 15981 ft | 371 kts | 355° |
| 2026-04-21 13:33 | 7.57607 | 125.61307 | 16593 ft | 374 kts | 355° |
| 2026-04-21 13:33 | 7.60212 | 125.61079 | 17214 ft | 376 kts | 355° |
| 2026-04-21 13:33 | 7.62831 | 125.60843 | 17820 ft | 380 kts | 354° |
| 2026-04-21 13:33 | 7.65472 | 125.60600 | 18385 ft | 383 kts | 354° |
| 2026-04-21 13:34 | 7.68132 | 125.60354 | 18905 ft | 385 kts | 355° |
| 2026-04-21 13:34 | 7.70811 | 125.60104 | 19421 ft | 388 kts | 355° |
| 2026-04-21 13:34 | 7.73479 | 125.59857 | 19904 ft | 391 kts | 355° |
| 2026-04-21 13:34 | 7.76201 | 125.59606 | 20391 ft | 395 kts | 355° |
| 2026-04-21 13:35 | 7.78948 | 125.59353 | 20904 ft | 397 kts | 355° |
| 2026-04-21 13:35 | 7.81709 | 125.59100 | 21408 ft | 400 kts | 355° |
| 2026-04-21 13:35 | 7.84488 | 125.58845 | 21902 ft | 402 kts | 356° |
| 2026-04-21 13:35 | 7.87295 | 125.58587 | 22387 ft | 405 kts | 356° |
| 2026-04-21 13:36 | 7.90111 | 125.58330 | 22859 ft | 408 kts | 356° |
| 2026-04-21 13:36 | 7.92952 | 125.58069 | 23334 ft | 411 kts | 356° |
| 2026-04-21 13:36 | 7.95810 | 125.57804 | 23751 ft | 414 kts | 356° |
| 2026-04-21 13:36 | 7.98686 | 125.57539 | 24128 ft | 417 kts | 356° |
| 2026-04-21 13:37 | 8.01581 | 125.57277 | 24503 ft | 419 kts | 356° |
| 2026-04-21 13:37 | 8.04505 | 125.57016 | 24883 ft | 422 kts | 356° |
| 2026-04-21 13:37 | 8.07438 | 125.56755 | 25256 ft | 425 kts | 356° |
| 2026-04-21 13:37 | 8.10389 | 125.56492 | 25627 ft | 427 kts | 356° |
| 2026-04-21 13:38 | 8.13364 | 125.56228 | 25992 ft | 430 kts | 356° |
| 2026-04-21 13:38 | 8.16354 | 125.55961 | 26358 ft | 433 kts | 355° |
| 2026-04-21 13:38 | 8.19362 | 125.55691 | 26711 ft | 436 kts | 355° |
| 2026-04-21 13:38 | 8.22395 | 125.55419 | 27061 ft | 438 kts | 355° |
| 2026-04-21 13:39 | 8.24410 | 125.55238 | 27296 ft | 440 kts | 355° |
| 2026-04-21 13:39 | 8.28504 | 125.54869 | 27761 ft | 444 kts | 355° |
| 2026-04-21 13:39 | 8.31592 | 125.54593 | 28101 ft | 446 kts | 355° |
| 2026-04-21 13:39 | 8.34698 | 125.54315 | 28435 ft | 449 kts | 355° |
| 2026-04-21 13:40 | 8.37816 | 125.54034 | 28772 ft | 451 kts | 355° |
| 2026-04-21 13:40 | 8.40952 | 125.53753 | 29106 ft | 454 kts | 355° |
| 2026-04-21 13:40 | 8.43038 | 125.53565 | 29323 ft | 456 kts | 355° |
| 2026-04-21 13:40 | 8.47239 | 125.53188 | 29765 ft | 459 kts | 355° |
| 2026-04-21 13:41 | 8.50469 | 125.52899 | 29931 ft | 459 kts | 355° |
| 2026-04-21 13:41 | 8.53593 | 125.52620 | 29953 ft | 442 kts | 355° |
| 2026-04-21 13:41 | 8.56599 | 125.52333 | 29948 ft | 428 kts | 354° |
| 2026-04-21 13:41 | 8.59510 | 125.52037 | 29955 ft | 424 kts | 354° |
| 2026-04-21 13:42 | 8.65354 | 125.51422 | 29960 ft | 421 kts | 354° |
| 2026-04-21 13:42 | 8.71181 | 125.50812 | 29953 ft | 421 kts | 354° |
| 2026-04-21 13:43 | 8.77005 | 125.50221 | 29948 ft | 421 kts | 354° |
| 2026-04-21 13:43 | 8.82907 | 125.49626 | 29947 ft | 420 kts | 354° |
| 2026-04-21 13:44 | 8.88734 | 125.49040 | 29939 ft | 420 kts | 354° |
| 2026-04-21 13:44 | 8.94547 | 125.48450 | 29936 ft | 420 kts | 354° |
| 2026-04-21 13:45 | 9.00291 | 125.47383 | 29935 ft | 420 kts | 349° |
| 2026-04-21 13:45 | 9.06039 | 125.46242 | 29929 ft | 420 kts | 349° |
| 2026-04-21 13:46 | 9.11778 | 125.45106 | 29931 ft | 420 kts | 349° |
| 2026-04-21 13:46 | 9.17524 | 125.43971 | 29917 ft | 420 kts | 349° |
| 2026-04-21 13:47 | 9.23266 | 125.42845 | 29920 ft | 420 kts | 349° |
| 2026-04-21 13:47 | 9.29014 | 125.41711 | 29917 ft | 421 kts | 349° |
| 2026-04-21 13:48 | 9.34774 | 125.40571 | 29915 ft | 422 kts | 349° |
| 2026-04-21 13:48 | 9.40538 | 125.39430 | 29915 ft | 422 kts | 349° |
| 2026-04-21 13:49 | 9.46275 | 125.38295 | 29918 ft | 423 kts | 349° |
| 2026-04-21 13:49 | 9.52059 | 125.37153 | 29920 ft | 423 kts | 349° |
| 2026-04-21 13:50 | 9.57844 | 125.36011 | 29916 ft | 423 kts | 349° |
| 2026-04-21 13:50 | 9.60730 | 125.35441 | 29727 ft | 421 kts | 349° |
| 2026-04-21 13:50 | 9.63591 | 125.34875 | 29443 ft | 418 kts | 349° |
| 2026-04-21 13:51 | 9.66434 | 125.34309 | 29182 ft | 416 kts | 349° |
| 2026-04-21 13:51 | 9.69271 | 125.33742 | 28922 ft | 415 kts | 349° |
| 2026-04-21 13:51 | 9.72096 | 125.33176 | 28665 ft | 413 kts | 349° |
| 2026-04-21 13:51 | 9.74904 | 125.32611 | 28402 ft | 411 kts | 349° |
| 2026-04-21 13:52 | 9.77697 | 125.32048 | 28157 ft | 408 kts | 349° |
| 2026-04-21 13:52 | 9.80481 | 125.31487 | 27917 ft | 406 kts | 349° |
| 2026-04-21 13:52 | 9.83252 | 125.30930 | 27661 ft | 406 kts | 349° |
| 2026-04-21 13:52 | 9.86019 | 125.30374 | 27413 ft | 403 kts | 349° |
| 2026-04-21 13:53 | 9.88768 | 125.29821 | 27168 ft | 402 kts | 349° |
| 2026-04-21 13:53 | 9.91499 | 125.29270 | 26930 ft | 397 kts | 349° |
| 2026-04-21 13:53 | 9.94192 | 125.28725 | 26558 ft | 392 kts | 349° |
| 2026-04-21 13:53 | 9.96857 | 125.28188 | 26089 ft | 390 kts | 349° |
| 2026-04-21 13:54 | 9.99482 | 125.27660 | 25640 ft | 388 kts | 349° |
| 2026-04-21 13:54 | 10.02128 | 125.27128 | 25159 ft | 387 kts | 349° |
| 2026-04-21 13:54 | 10.04801 | 125.26591 | 24681 ft | 386 kts | 349° |
| 2026-04-21 13:54 | 10.07398 | 125.26067 | 24200 ft | 386 kts | 349° |
| 2026-04-21 13:55 | 10.10031 | 125.25535 | 23712 ft | 385 kts | 349° |
| 2026-04-21 13:55 | 10.12660 | 125.25004 | 23171 ft | 385 kts | 349° |
| 2026-04-21 13:55 | 10.15280 | 125.24476 | 22679 ft | 383 kts | 349° |
| 2026-04-21 13:55 | 10.17883 | 125.23949 | 22185 ft | 380 kts | 349° |
| 2026-04-21 13:56 | 10.20471 | 125.23425 | 21714 ft | 378 kts | 348° |
| 2026-04-21 13:56 | 10.23050 | 125.22905 | 21246 ft | 377 kts | 348° |
| 2026-04-21 13:56 | 10.25614 | 125.22388 | 20783 ft | 375 kts | 348° |
| 2026-04-21 13:56 | 10.28172 | 125.21869 | 20317 ft | 374 kts | 348° |
| 2026-04-21 13:57 | 10.30716 | 125.21350 | 19858 ft | 372 kts | 348° |
| 2026-04-21 13:57 | 10.33258 | 125.20836 | 19397 ft | 371 kts | 348° |
| 2026-04-21 13:57 | 10.35792 | 125.20325 | 18938 ft | 370 kts | 347° |
| 2026-04-21 13:57 | 10.38319 | 125.19815 | 18497 ft | 369 kts | 347° |
| 2026-04-21 13:58 | 10.40818 | 125.19311 | 18069 ft | 366 kts | 347° |
| 2026-04-21 13:58 | 10.43311 | 125.18809 | 17669 ft | 362 kts | 347° |
| 2026-04-21 13:58 | 10.45781 | 125.18313 | 17203 ft | 360 kts | 347° |
| 2026-04-21 13:58 | 10.48238 | 125.17817 | 16724 ft | 359 kts | 347° |
| 2026-04-21 13:59 | 10.50669 | 125.17323 | 16280 ft | 357 kts | 346° |
| 2026-04-21 13:59 | 10.53090 | 125.16832 | 15929 ft | 352 kts | 346° |
| 2026-04-21 13:59 | 10.55484 | 125.16346 | 15469 ft | 346 kts | 347° |
| 2026-04-21 13:59 | 10.57810 | 125.15877 | 15016 ft | 334 kts | 346° |
| 2026-04-21 14:00 | 10.60049 | 125.15428 | 14630 ft | 322 kts | 347° |
| 2026-04-21 14:00 | 10.62219 | 125.14992 | 14255 ft | 322 kts | 346° |
| 2026-04-21 14:00 | 10.64423 | 125.14548 | 13875 ft | 323 kts | 346° |
| 2026-04-21 14:00 | 10.66629 | 125.14103 | 13461 ft | 323 kts | 347° |
| 2026-04-21 14:01 | 10.68827 | 125.13659 | 13059 ft | 322 kts | 347° |
| 2026-04-21 14:01 | 10.71023 | 125.13214 | 12673 ft | 321 kts | 347° |
| 2026-04-21 14:01 | 10.73206 | 125.12771 | 12269 ft | 319 kts | 347° |
| 2026-04-21 14:01 | 10.75381 | 125.12329 | 11882 ft | 318 kts | 346° |
| 2026-04-21 14:02 | 10.76818 | 125.12038 | 11623 ft | 317 kts | 347° |
| 2026-04-21 14:02 | 10.79712 | 125.11452 | 11079 ft | 317 kts | 348° |
| 2026-04-21 14:02 | 10.81874 | 125.11041 | 10674 ft | 316 kts | 353° |
| 2026-04-21 14:03 | 10.86257 | 125.11083 | 9893 ft | 314 kts | 1° |
| 2026-04-21 14:03 | 10.88378 | 125.11157 | 9712 ft | 295 kts | 1° |
| 2026-04-21 14:03 | 10.90401 | 125.11225 | 9177 ft | 288 kts | 2° |
| 2026-04-21 14:03 | 10.92385 | 125.11287 | 8617 ft | 282 kts | 2° |
| 2026-04-21 14:04 | 10.94325 | 125.11346 | 8138 ft | 274 kts | 4° |
| 2026-04-21 14:04 | 10.96196 | 125.11403 | 7728 ft | 264 kts | 4° |
| 2026-04-21 14:04 | 10.98001 | 125.11459 | 7328 ft | 256 kts | 4° |
| 2026-04-21 14:04 | 10.99754 | 125.11385 | 6929 ft | 251 kts | 348° |
| 2026-04-21 14:05 | 11.01317 | 125.10632 | 6527 ft | 250 kts | 322° |
| 2026-04-21 14:05 | 11.02401 | 125.09256 | 6066 ft | 252 kts | 296° |
| 2026-04-21 14:05 | 11.02800 | 125.07534 | 5589 ft | 251 kts | 274° |
| 2026-04-21 14:05 | 11.02906 | 125.05767 | 5117 ft | 250 kts | 274° |
| 2026-04-21 14:06 | 11.03059 | 125.04009 | 4644 ft | 249 kts | 283° |
| 2026-04-21 14:06 | 11.03866 | 125.02501 | 4165 ft | 243 kts | 320° |
| 2026-04-21 14:06 | 11.05301 | 125.01720 | 3742 ft | 231 kts | 353° |
| 2026-04-21 14:06 | 11.06867 | 125.01706 | 3356 ft | 223 kts | 8° |
| 2026-04-21 14:07 | 11.07892 | 125.01774 | 3087 ft | 222 kts | 7° |
| 2026-04-21 14:07 | 11.09926 | 125.01910 | 2571 ft | 216 kts | 8° |
| 2026-04-21 14:07 | 11.11410 | 125.02009 | 2167 ft | 211 kts | 7° |
| 2026-04-21 14:07 | 11.12846 | 125.02105 | 1807 ft | 199 kts | 8° |
| 2026-04-21 14:08 | 11.13730 | 125.02163 | 1586 ft | 186 kts | 8° |
| 2026-04-21 14:08 | 11.14933 | 125.02240 | 1381 ft | 161 kts | 8° |
| 2026-04-21 14:08 | 11.16313 | 125.02330 | 1102 ft | 142 kts | 7° |
| 2026-04-21 14:08 | 11.17280 | 125.02396 | 927 ft | 138 kts | 5° |
| 2026-04-21 14:09 | 11.17921 | 125.02441 | 808 ft | 136 kts | 5° |
| 2026-04-21 14:09 | 11.18866 | 125.02506 | 647 ft | 136 kts | 6° |
| 2026-04-21 14:09 | 11.19814 | 125.02581 | 413 ft | 136 kts | 5° |
| 2026-04-21 14:09 | 11.20760 | 125.02637 | 235 ft | 137 kts | 4° |
| 2026-04-21 14:10 | 11.21707 | 125.02706 | 63 ft | 136 kts | 4° |
| 2026-04-21 14:10 | 11.22564 | 125.02762 | 14 ft | 92 kts | 4° |
| 2026-04-21 14:10 | 11.22962 | 125.02788 | 10 ft | 43 kts | 4° |
| 2026-04-21 14:10 | 11.23243 | 125.02807 | 9 ft | 38 kts | 3° |
| 2026-04-21 14:11 | 11.23415 | 125.02818 | 10 ft | 23 kts | 3° |
| 2026-04-21 14:11 | 11.23568 | 125.02827 | 13 ft | 21 kts | 4° |
| 2026-04-21 14:11 | 11.23657 | 125.02818 | 13 ft | 11 kts | 330° |
| 2026-04-21 14:11 | 11.23705 | 125.02832 | 13 ft | 5 kts | 101° |
| 2026-04-21 14:12 | 11.23674 | 125.02836 | 13 ft | 4 kts | 182° |
| 2026-04-21 14:12 | 11.23604 | 125.02832 | 13 ft | 16 kts | 184° |
| 2026-04-21 14:12 | 11.23460 | 125.02822 | 11 ft | 23 kts | 184° |
| 2026-04-21 14:12 | 11.23285 | 125.02809 | 9 ft | 27 kts | 184° |
| 2026-04-21 14:13 | 11.23093 | 125.02796 | 11 ft | 28 kts | 184° |
| 2026-04-21 14:13 | 11.22888 | 125.02783 | 10 ft | 31 kts | 184° |
| 2026-04-21 14:13 | 11.22679 | 125.02769 | 12 ft | 20 kts | 184° |
| 2026-04-21 14:13 | 11.22581 | 125.02762 | 13 ft | 8 kts | 188° |
| 2026-04-21 14:14 | 11.22567 | 125.02719 | 13 ft | 7 kts | 287° |
| 2026-04-21 14:14 | 11.22604 | 125.02687 | 12 ft | 7 kts | 346° |
| 2026-04-21 14:14 | 11.22648 | 125.02686 | 12 ft | 4 kts | 0° |
| 2026-04-21 14:14 | 11.22670 | 125.02671 | 12 ft | 4 kts | 310° |
| 2026-04-21 14:15 | 11.22681 | 125.02657 | 12 ft | 0 kts | 308° |